Time;durP1;ratioP1;P1;durP2;ratioP2;P2;SDS_P1;SDS_P2;PMS_P1;PMS_P2;Temp;Humidity;BMP_temperature;BMP_pressure;BME280_temperature;BME280_humidity;BME280_pressure;Samples;Min_cycle;Max_cycle;Signal;HPM_P1;HPM_P2
2022/03/08 00:01:04;;;;;;;22.63;7.90;;;;;;;;;;4961190;28;20727;-66
2022/03/08 00:03:29;;;;;;;26.75;9.05;;;;;;;;;;4965306;28;20045;-58
2022/03/08 00:05:56;;;;;;;19.77;9.40;;;;;;;;;;4958522;28;20031;-64
2022/03/08 00:08:22;;;;;;;24.30;10.10;;;;;;;;;;4965781;28;20055;-66
2022/03/08 00:10:48;;;;;;;33.80;12.27;;;;;;;;;;4960837;28;20634;-60
2022/03/08 00:13:13;;;;;;;29.30;13.05;;;;;;;;;;4965430;28;22816;-58
2022/03/08 00:15:39;;;;;;;30.13;12.80;;;;;;;;;;4964310;28;20380;-60
2022/03/08 00:18:04;;;;;;;24.17;12.20;;;;;;;;;;4965157;28;20031;-60
2022/03/08 00:20:30;;;;;;;35.90;13.27;;;;;;;;;;4962908;28;20073;-61
2022/03/08 00:22:56;;;;;;;24.90;12.88;;;;;;;;;;4960682;28;20051;-61
2022/03/08 00:25:21;;;;;;;35.97;14.00;;;;;;;;;;4961402;28;20397;-59
2022/03/08 00:27:47;;;;;;;32.30;13.55;;;;;;;;;;4965944;28;20490;-59
2022/03/08 00:30:15;;;;;;;33.15;14.10;;;;;;;;;;4966326;28;20047;-66
2022/03/08 00:32:41;;;;;;;37.90;16.02;;;;;;;;;;4961700;28;20104;-58
2022/03/08 00:35:07;;;;;;;44.42;16.55;;;;;;;;;;4964784;28;20066;-60
2022/03/08 00:37:33;;;;;;;31.85;14.02;;;;;;;;;;4960266;28;20039;-60
2022/03/08 00:39:59;;;;;;;32.83;15.02;;;;;;;;;;4955529;28;20636;-61
2022/03/08 00:42:24;;;;;;;52.88;17.75;;;;;;;;;;4964195;28;20062;-60
2022/03/08 00:44:50;;;;;;;45.72;19.20;;;;;;;;;;4968950;28;20042;-60
2022/03/08 00:47:16;;;;;;;42.17;17.33;;;;;;;;;;4965488;28;20038;-59
2022/03/08 00:49:41;;;;;;;35.83;18.38;;;;;;;;;;4966544;28;20038;-59
2022/03/08 00:52:08;;;;;;;36.80;16.05;;;;;;;;;;4966176;28;20034;-60
2022/03/08 00:54:34;;;;;;;40.25;15.38;;;;;;;;;;4968272;28;20049;-60
2022/03/08 00:56:59;;;;;;;35.83;14.60;;;;;;;;;;4967710;28;20490;-60
2022/03/08 00:59:25;;;;;;;35.78;15.93;;;;;;;;;;4963676;28;20373;-60
2022/03/08 01:01:51;;;;;;;35.55;16.52;;;;;;;;;;4978046;28;20042;-60
2022/03/08 01:04:17;;;;;;;46.42;17.23;;;;;;;;;;4975821;28;20037;-60
2022/03/08 01:06:43;;;;;;;35.50;15.70;;;;;;;;;;4978474;28;20030;-60
2022/03/08 01:09:08;;;;;;;44.13;17.20;;;;;;;;;;4977775;28;20097;-60
2022/03/08 01:11:36;;;;;;;40.65;20.15;;;;;;;;;;4982487;28;20552;-60
2022/03/08 01:14:06;;;;;;;42.70;17.90;;;;;;;;;;4980866;28;20120;-59
2022/03/08 01:16:33;;;;;;;39.45;16.15;;;;;;;;;;4980214;28;20038;-59
2022/03/08 01:18:58;;;;;;;45.83;16.08;;;;;;;;;;4983377;28;20030;-59
2022/03/08 01:21:24;;;;;;;51.90;18.17;;;;;;;;;;4982647;28;20042;-59
2022/03/08 01:23:49;;;;;;;38.85;16.13;;;;;;;;;;4975019;28;20097;-59
2022/03/08 01:26:15;;;;;;;63.47;18.75;;;;;;;;;;4981786;28;20030;-59
2022/03/08 01:28:40;;;;;;;45.50;18.67;;;;;;;;;;4982727;28;20034;-59
2022/03/08 01:31:06;;;;;;;35.75;14.95;;;;;;;;;;4981431;28;20033;-59
2022/03/08 01:33:32;;;;;;;44.67;18.48;;;;;;;;;;4981173;28;20038;-59
2022/03/08 01:35:57;;;;;;;43.08;18.33;;;;;;;;;;4976866;28;20041;-59
2022/03/08 01:38:23;;;;;;;38.47;15.70;;;;;;;;;;4976243;28;20065;-57
2022/03/08 01:40:48;;;;;;;33.42;16.13;;;;;;;;;;4980239;28;20437;-59
2022/03/08 01:43:14;;;;;;;38.72;17.13;;;;;;;;;;4976163;28;20034;-59
2022/03/08 01:45:39;;;;;;;41.35;18.35;;;;;;;;;;4983669;28;20070;-59
2022/03/08 01:48:05;;;;;;;33.38;14.02;;;;;;;;;;4983065;28;20133;-58
2022/03/08 01:50:31;;;;;;;50.13;16.98;;;;;;;;;;4982227;28;20641;-59
2022/03/08 01:52:57;;;;;;;50.55;17.92;;;;;;;;;;4981844;28;20073;-59
2022/03/08 01:55:23;;;;;;;39.13;15.35;;;;;;;;;;4975540;28;20754;-59
2022/03/08 01:57:50;;;;;;;38.60;15.77;;;;;;;;;;4980863;28;20097;-58
2022/03/08 02:00:20;;;;;;;34.33;16.00;;;;;;;;;;4979020;28;20501;-59
2022/03/08 02:02:46;;;;;;;37.40;15.45;;;;;;;;;;4983244;28;20030;-59
2022/03/08 02:05:12;;;;;;;35.75;16.15;;;;;;;;;;4981749;28;20101;-59
2022/03/08 02:07:37;;;;;;;35.50;15.93;;;;;;;;;;4995382;28;20545;-59
2022/03/08 02:10:05;;;;;;;43.90;18.23;;;;;;;;;;4977644;28;20047;-59
2022/03/08 02:12:31;;;;;;;31.17;15.07;;;;;;;;;;4978846;28;20030;-59
2022/03/08 02:14:57;;;;;;;44.35;16.27;;;;;;;;;;4982551;28;20105;-60
2022/03/08 02:17:22;;;;;;;43.85;19.52;;;;;;;;;;4981581;28;20039;-59
2022/03/08 02:19:48;;;;;;;32.47;15.35;;;;;;;;;;4982020;28;20047;-59
2022/03/08 02:22:13;;;;;;;38.85;17.23;;;;;;;;;;4977348;28;20113;-60
2022/03/08 02:24:38;;;;;;;36.25;14.52;;;;;;;;;;4982846;28;20560;-59
2022/03/08 02:27:05;;;;;;;38.63;17.05;;;;;;;;;;4978605;28;20034;-60
2022/03/08 02:29:31;;;;;;;44.03;17.40;;;;;;;;;;4974836;28;20117;-59
2022/03/08 02:31:56;;;;;;;50.08;17.83;;;;;;;;;;4982227;28;20620;-59
2022/03/08 02:34:22;;;;;;;38.75;16.77;;;;;;;;;;4981887;28;20030;-60
2022/03/08 02:37:07;;;;;;;50.40;21.55;;;;;;;;;;4977056;28;20046;-59
2022/03/08 02:39:33;;;;;;;45.65;19.33;;;;;;;;;;4981927;28;20030;-59
2022/03/08 02:41:59;;;;;;;61.25;21.67;;;;;;;;;;4981484;28;20564;-59
2022/03/08 02:44:25;;;;;;;40.00;15.75;;;;;;;;;;4982719;28;20038;-59
2022/03/08 02:46:51;;;;;;;45.42;20.05;;;;;;;;;;4980182;28;20222;-59
2022/03/08 02:49:17;;;;;;;46.42;17.98;;;;;;;;;;4977199;28;20034;-59
2022/03/08 02:51:42;;;;;;;51.45;19.63;;;;;;;;;;4979049;28;20129;-59
2022/03/08 02:54:08;;;;;;;49.83;19.52;;;;;;;;;;4983466;28;20035;-59
2022/03/08 02:56:33;;;;;;;33.78;15.00;;;;;;;;;;4981918;28;20469;-60
2022/03/08 02:58:59;;;;;;;55.55;21.83;;;;;;;;;;4983003;28;20135;-60
2022/03/08 03:01:25;;;;;;;49.67;20.80;;;;;;;;;;4983313;28;20038;-60
2022/03/08 03:03:51;;;;;;;45.45;19.40;;;;;;;;;;4976122;28;20026;-60
2022/03/08 03:06:17;;;;;;;43.30;17.95;;;;;;;;;;4974020;28;20076;-59
2022/03/08 03:08:42;;;;;;;48.42;20.42;;;;;;;;;;4981580;28;20058;-60
2022/03/08 03:11:08;;;;;;;45.40;19.05;;;;;;;;;;4983768;28;20490;-60
2022/03/08 03:13:34;;;;;;;51.58;20.58;;;;;;;;;;4980861;28;20497;-60
2022/03/08 03:15:59;;;;;;;36.70;14.90;;;;;;;;;;4979592;28;20031;-60
2022/03/08 03:18:25;;;;;;;46.65;20.42;;;;;;;;;;4986150;28;20096;-60
2022/03/08 03:20:50;;;;;;;42.08;18.35;;;;;;;;;;4984936;28;20121;-60
2022/03/08 03:23:16;;;;;;;45.33;17.58;;;;;;;;;;4986829;28;20077;-60
2022/03/08 03:25:41;;;;;;;34.05;14.65;;;;;;;;;;4984553;28;20042;-60
2022/03/08 03:28:07;;;;;;;45.33;18.60;;;;;;;;;;4995940;28;20133;-59
2022/03/08 03:30:32;;;;;;;49.85;17.98;;;;;;;;;;4985951;28;20042;-60
2022/03/08 03:32:58;;;;;;;64.72;21.90;;;;;;;;;;4985551;28;20091;-60
2022/03/08 03:35:23;;;;;;;41.97;19.55;;;;;;;;;;4986463;28;20505;-60
2022/03/08 03:37:48;;;;;;;53.92;21.95;;;;;;;;;;4987848;28;20045;-60
2022/03/08 03:40:15;;;;;;;50.17;19.83;;;;;;;;;;4987891;28;20507;-60
2022/03/08 03:42:40;;;;;;;42.13;18.15;;;;;;;;;;4987628;28;20041;-60
2022/03/08 03:45:07;;;;;;;54.70;20.40;;;;;;;;;;4984155;28;20038;-60
2022/03/08 03:47:33;;;;;;;61.78;21.20;;;;;;;;;;4981001;28;20104;-60
2022/03/08 03:49:59;;;;;;;50.95;18.70;;;;;;;;;;4983356;28;20470;-60
2022/03/08 03:52:24;;;;;;;47.15;19.83;;;;;;;;;;4983997;28;20050;-60
2022/03/08 03:54:50;;;;;;;41.80;18.27;;;;;;;;;;4987170;28;20382;-59
2022/03/08 03:57:16;;;;;;;59.13;19.48;;;;;;;;;;4980942;28;20038;-60
2022/03/08 03:59:41;;;;;;;49.00;17.88;;;;;;;;;;4984433;28;20409;-59
2022/03/08 04:02:07;;;;;;;48.38;20.95;;;;;;;;;;4993104;28;20042;-59
2022/03/08 04:04:33;;;;;;;47.80;17.35;;;;;;;;;;4987104;28;20070;-60
2022/03/08 04:06:58;;;;;;;59.40;22.73;;;;;;;;;;4987146;28;20136;-59
2022/03/08 04:09:24;;;;;;;45.30;18.15;;;;;;;;;;4980976;28;20053;-59
2022/03/08 04:11:49;;;;;;;43.85;18.30;;;;;;;;;;4981125;28;20039;-59
2022/03/08 04:14:15;;;;;;;56.60;19.70;;;;;;;;;;4982797;28;20031;-59
2022/03/08 04:16:41;;;;;;;56.83;22.17;;;;;;;;;;4981842;28;20039;-59
2022/03/08 04:19:06;;;;;;;44.90;16.70;;;;;;;;;;4982005;28;20089;-59
2022/03/08 04:21:32;;;;;;;40.92;17.25;;;;;;;;;;4986023;28;20077;-59
2022/03/08 04:23:59;;;;;;;55.13;19.75;;;;;;;;;;4983363;28;20030;-59
2022/03/08 04:26:25;;;;;;;47.60;17.98;;;;;;;;;;4983899;28;20027;-59
2022/03/08 04:28:50;;;;;;;45.00;17.50;;;;;;;;;;4981395;28;20034;-59
2022/03/08 04:31:16;;;;;;;60.50;23.95;;;;;;;;;;4983385;28;20383;-59
2022/03/08 04:33:42;;;;;;;61.35;24.20;;;;;;;;;;4988129;28;20367;-60
2022/03/08 04:36:07;;;;;;;41.28;19.60;;;;;;;;;;4986294;28;20034;-59
2022/03/08 04:38:33;;;;;;;50.22;22.10;;;;;;;;;;4978394;28;20046;-59
2022/03/08 04:41:02;;;;;;;48.72;18.05;;;;;;;;;;4982632;28;20029;-60
2022/03/08 04:43:28;;;;;;;51.20;20.38;;;;;;;;;;4982627;28;20043;-60
2022/03/08 04:45:54;;;;;;;44.97;18.23;;;;;;;;;;4994065;28;20034;-59
2022/03/08 04:48:19;;;;;;;31.40;17.08;;;;;;;;;;4978969;28;20524;-60
2022/03/08 04:50:44;;;;;;;69.40;21.60;;;;;;;;;;4980371;28;20042;-59
2022/03/08 04:53:10;;;;;;;54.92;22.15;;;;;;;;;;4978981;28;20497;-59
2022/03/08 04:55:36;;;;;;;50.65;19.17;;;;;;;;;;4979438;28;20029;-60
2022/03/08 04:58:01;;;;;;;54.72;21.00;;;;;;;;;;4978617;28;20300;-59
2022/03/08 05:00:27;;;;;;;42.35;18.55;;;;;;;;;;4979700;28;20018;-59
2022/03/08 05:02:52;;;;;;;62.53;21.10;;;;;;;;;;4980369;28;20324;-60
2022/03/08 05:05:18;;;;;;;47.70;20.08;;;;;;;;;;4983413;28;20041;-59
2022/03/08 05:07:43;;;;;;;60.08;19.55;;;;;;;;;;4983750;28;20077;-60
2022/03/08 05:10:11;;;;;;;44.40;18.48;;;;;;;;;;4993647;28;20038;-60
2022/03/08 05:12:38;;;;;;;49.97;20.35;;;;;;;;;;4972899;28;20057;-60
2022/03/08 05:15:04;;;;;;;42.25;17.80;;;;;;;;;;4977526;28;20030;-60
2022/03/08 05:17:30;;;;;;;50.67;17.70;;;;;;;;;;4978053;28;20061;-59
2022/03/08 05:19:55;;;;;;;49.88;21.80;;;;;;;;;;4978547;28;20030;-59
2022/03/08 05:22:22;;;;;;;47.58;16.33;;;;;;;;;;4985086;28;20498;-59
2022/03/08 05:24:47;;;;;;;38.22;16.70;;;;;;;;;;4985525;28;20030;-59
2022/03/08 05:27:13;;;;;;;41.75;16.75;;;;;;;;;;4983100;28;20034;-59
2022/03/08 05:29:39;;;;;;;45.60;18.52;;;;;;;;;;4981990;28;20761;-59
2022/03/08 05:32:05;;;;;;;46.80;20.15;;;;;;;;;;4977299;28;20417;-59
2022/03/08 05:34:30;;;;;;;57.97;19.15;;;;;;;;;;4975042;28;20101;-59
2022/03/08 05:36:56;;;;;;;48.22;20.15;;;;;;;;;;4981705;28;20065;-59
2022/03/08 05:39:22;;;;;;;48.17;20.75;;;;;;;;;;4980154;28;20513;-59
2022/03/08 05:41:47;;;;;;;46.15;18.85;;;;;;;;;;4983580;28;20037;-59
2022/03/08 05:44:13;;;;;;;43.47;17.58;;;;;;;;;;4977763;28;20026;-59
2022/03/08 05:46:38;;;;;;;45.05;18.67;;;;;;;;;;4981795;28;20398;-59
2022/03/08 05:49:04;;;;;;;48.53;19.58;;;;;;;;;;4982544;28;20379;-59
2022/03/08 05:51:29;;;;;;;45.85;18.73;;;;;;;;;;4979217;28;20030;-59
2022/03/08 05:53:55;;;;;;;57.08;20.98;;;;;;;;;;4980436;28;20516;-59
2022/03/08 05:56:20;;;;;;;41.83;17.83;;;;;;;;;;4978514;28;20639;-59
2022/03/08 05:58:46;;;;;;;44.03;17.63;;;;;;;;;;4979871;28;20034;-59
2022/03/08 06:01:11;;;;;;;44.35;18.48;;;;;;;;;;4981791;28;20740;-59
2022/03/08 06:03:37;;;;;;;46.97;20.08;;;;;;;;;;4984013;28;20037;-59
2022/03/08 06:06:03;;;;;;;45.03;16.60;;;;;;;;;;4981285;28;20397;-59
2022/03/08 06:08:29;;;;;;;49.22;19.23;;;;;;;;;;4975675;28;20046;-59
2022/03/08 06:10:54;;;;;;;39.85;15.98;;;;;;;;;;4981705;28;20121;-58
2022/03/08 06:13:19;;;;;;;51.38;18.38;;;;;;;;;;4996361;28;20485;-59
2022/03/08 06:15:45;;;;;;;51.63;19.77;;;;;;;;;;4983340;28;20054;-59
2022/03/08 06:18:11;;;;;;;38.33;17.83;;;;;;;;;;4980444;28;20022;-59
2022/03/08 06:20:37;;;;;;;41.45;15.60;;;;;;;;;;4978876;28;20036;-58
2022/03/08 06:23:02;;;;;;;51.70;18.83;;;;;;;;;;4984420;28;20038;-58
2022/03/08 06:25:28;;;;;;;51.92;19.70;;;;;;;;;;4979916;28;20397;-58
2022/03/08 06:27:53;;;;;;;55.50;21.88;;;;;;;;;;4982688;28;20026;-59
2022/03/08 06:30:19;;;;;;;56.55;21.60;;;;;;;;;;4981322;28;20038;-58
2022/03/08 06:32:44;;;;;;;52.63;20.77;;;;;;;;;;4976831;28;20042;-58
2022/03/08 06:35:10;;;;;;;41.55;16.50;;;;;;;;;;4981888;28;20037;-59
2022/03/08 06:37:36;;;;;;;43.03;18.23;;;;;;;;;;4984342;28;20128;-59
2022/03/08 06:40:02;;;;;;;51.00;19.65;;;;;;;;;;4983680;28;20038;-60
2022/03/08 06:42:28;;;;;;;51.22;18.85;;;;;;;;;;4981753;28;20061;-60
2022/03/08 06:44:53;;;;;;;44.88;18.23;;;;;;;;;;4984972;28;20125;-60
2022/03/08 06:47:19;;;;;;;55.10;19.73;;;;;;;;;;4988898;28;20081;-60
2022/03/08 06:49:44;;;;;;;46.25;17.33;;;;;;;;;;4983939;28;20313;-60
2022/03/08 06:52:10;;;;;;;53.58;18.40;;;;;;;;;;4985133;28;20378;-59
2022/03/08 06:54:36;;;;;;;56.92;19.38;;;;;;;;;;4982117;28;20049;-59
2022/03/08 06:57:30;;;;;;;51.08;18.27;;;;;;;;;;5034842;28;20400;-59
2022/03/08 07:00:20;;;;;;;52.53;20.83;;;;;;;;;;5055484;27;20419;-61
2022/03/08 07:02:46;;;;;;;51.28;20.63;;;;;;;;;;5039254;28;20384;-60
2022/03/08 07:05:12;;;;;;;49.30;20.33;;;;;;;;;;5036285;28;20121;-60
2022/03/08 07:07:38;;;;;;;56.03;23.45;;;;;;;;;;5035729;28;20617;-60
2022/03/08 07:10:08;;;;;;;49.05;18.30;;;;;;;;;;5039164;28;20054;-60
2022/03/08 07:12:33;;;;;;;56.13;21.33;;;;;;;;;;5037634;28;20132;-60
2022/03/08 07:14:59;;;;;;;59.92;20.90;;;;;;;;;;5040924;28;20271;-60
2022/03/08 07:17:24;;;;;;;48.25;20.52;;;;;;;;;;5043112;28;20044;-60
2022/03/08 07:19:50;;;;;;;50.83;22.45;;;;;;;;;;5043795;28;20024;-60
2022/03/08 07:22:17;;;;;;;51.55;18.13;;;;;;;;;;5044835;28;20033;-60
2022/03/08 07:24:43;;;;;;;55.10;20.58;;;;;;;;;;5042295;28;20029;-63
2022/03/08 07:27:08;;;;;;;56.25;20.45;;;;;;;;;;5040009;28;20037;-60
2022/03/08 07:29:35;;;;;;;40.95;15.50;;;;;;;;;;5053853;28;20084;-60
2022/03/08 07:32:00;;;;;;;53.55;19.25;;;;;;;;;;5037124;28;20033;-60
2022/03/08 07:34:26;;;;;;;68.63;21.25;;;;;;;;;;5043401;28;21853;-60
2022/03/08 07:36:51;;;;;;;52.50;20.75;;;;;;;;;;5037491;28;20079;-60
2022/03/08 07:39:17;;;;;;;43.15;17.58;;;;;;;;;;5038112;28;20510;-60
2022/03/08 07:41:42;;;;;;;67.50;22.00;;;;;;;;;;5034103;28;20045;-60
2022/03/08 07:44:08;;;;;;;44.25;20.85;;;;;;;;;;5027602;28;20047;-60
2022/03/08 07:46:33;;;;;;;50.70;22.23;;;;;;;;;;5046777;28;20036;-60
2022/03/08 07:48:59;;;;;;;48.97;17.25;;;;;;;;;;5029596;28;20033;-60
2022/03/08 07:51:25;;;;;;;46.85;20.48;;;;;;;;;;5034545;28;20040;-61
2022/03/08 07:53:51;;;;;;;45.70;18.33;;;;;;;;;;5033072;28;20070;-60
2022/03/08 07:56:16;;;;;;;60.90;21.08;;;;;;;;;;5040079;28;20029;-60
2022/03/08 07:58:42;;;;;;;57.78;20.60;;;;;;;;;;5034241;28;20530;-60
2022/03/08 08:01:08;;;;;;;69.82;22.55;;;;;;;;;;5036836;28;20042;-59
2022/03/08 08:03:33;;;;;;;51.75;17.50;;;;;;;;;;5026403;28;20041;-61
2022/03/08 08:06:02;;;;;;;45.85;17.85;;;;;;;;;;5035950;28;20041;-58
2022/03/08 08:08:27;;;;;;;47.80;19.38;;;;;;;;;;5032287;28;20079;-59
2022/03/08 08:10:53;;;;;;;48.80;19.02;;;;;;;;;;5023944;28;20108;-59
2022/03/08 08:13:18;;;;;;;58.42;20.80;;;;;;;;;;5020622;28;20045;-59
2022/03/08 08:15:43;;;;;;;43.47;19.63;;;;;;;;;;5017885;28;20056;-59
2022/03/08 08:18:09;;;;;;;53.30;18.13;;;;;;;;;;5021762;28;20074;-59
2022/03/08 08:20:34;;;;;;;50.55;18.73;;;;;;;;;;5023553;28;20037;-59
2022/03/08 08:23:00;;;;;;;46.40;17.58;;;;;;;;;;5019439;28;20025;-59
2022/03/08 08:25:26;;;;;;;38.42;15.63;;;;;;;;;;5019661;28;20484;-60
2022/03/08 08:27:51;;;;;;;43.33;17.75;;;;;;;;;;5018967;28;20078;-59
2022/03/08 08:30:18;;;;;;;57.85;20.25;;;;;;;;;;5022992;28;20531;-60
2022/03/08 08:32:44;;;;;;;57.17;20.33;;;;;;;;;;5021136;28;20045;-59
2022/03/08 08:35:10;;;;;;;52.38;20.02;;;;;;;;;;5026003;28;20037;-59
2022/03/08 08:37:35;;;;;;;55.70;21.70;;;;;;;;;;5022597;28;20079;-60
2022/03/08 08:40:02;;;;;;;43.25;18.20;;;;;;;;;;5021478;28;20041;-59
2022/03/08 08:42:28;;;;;;;50.72;20.75;;;;;;;;;;5021274;28;20401;-58
2022/03/08 08:44:54;;;;;;;68.03;22.92;;;;;;;;;;5021593;28;20248;-57
2022/03/08 08:47:19;;;;;;;56.80;18.85;;;;;;;;;;5015126;28;20080;-57
2022/03/08 08:49:45;;;;;;;55.83;20.35;;;;;;;;;;5020564;28;20063;-58
2022/03/08 08:52:11;;;;;;;63.70;20.25;;;;;;;;;;5026853;28;20518;-57
2022/03/08 08:54:37;;;;;;;49.97;19.27;;;;;;;;;;5022011;28;20506;-57
2022/03/08 08:57:02;;;;;;;64.82;23.23;;;;;;;;;;5023128;28;20045;-57
2022/03/08 08:59:28;;;;;;;71.38;24.85;;;;;;;;;;5018886;28;20057;-57
2022/03/08 09:01:53;;;;;;;51.05;18.00;;;;;;;;;;5015674;28;20029;-58
2022/03/08 09:04:19;;;;;;;42.85;18.63;;;;;;;;;;5021079;28;20476;-58
2022/03/08 09:06:44;;;;;;;59.00;20.05;;;;;;;;;;5017921;28;20084;-56
2022/03/08 09:09:10;;;;;;;64.20;20.58;;;;;;;;;;5021214;28;20038;-57
2022/03/08 09:11:36;;;;;;;48.47;18.63;;;;;;;;;;5028659;28;20591;-56
2022/03/08 09:14:04;;;;;;;57.85;20.00;;;;;;;;;;5021045;28;20115;-57
2022/03/08 09:16:30;;;;;;;53.72;20.98;;;;;;;;;;5017788;28;20034;-57
2022/03/08 09:18:55;;;;;;;56.22;18.20;;;;;;;;;;5019675;28;20115;-57
2022/03/08 09:21:21;;;;;;;56.33;19.25;;;;;;;;;;5026996;28;20033;-59
2022/03/08 09:23:46;;;;;;;75.97;24.05;;;;;;;;;;5022312;28;20493;-57
2022/03/08 09:26:12;;;;;;;63.53;20.38;;;;;;;;;;5026480;28;20145;-58
2022/03/08 09:28:37;;;;;;;58.00;21.48;;;;;;;;;;5022556;28;20504;-57
2022/03/08 09:31:03;;;;;;;59.13;21.55;;;;;;;;;;5025360;28;20048;-57
2022/03/08 09:33:29;;;;;;;58.20;21.85;;;;;;;;;;5026183;28;20021;-58
2022/03/08 09:35:54;;;;;;;57.25;21.55;;;;;;;;;;5025385;28;20029;-57
2022/03/08 09:38:20;;;;;;;56.08;20.90;;;;;;;;;;5028540;28;20376;-57
2022/03/08 09:40:47;;;;;;;68.00;18.80;;;;;;;;;;5026289;28;20026;-57
2022/03/08 09:43:14;;;;;;;70.20;23.15;;;;;;;;;;5022938;28;20052;-57
2022/03/08 09:45:40;;;;;;;67.30;22.42;;;;;;;;;;5022940;28;20029;-57
2022/03/08 09:48:05;;;;;;;62.20;23.55;;;;;;;;;;5024978;28;20044;-57
2022/03/08 09:50:31;;;;;;;68.32;21.83;;;;;;;;;;5024342;28;20511;-57
2022/03/08 09:52:57;;;;;;;73.28;19.40;;;;;;;;;;5023281;28;20030;-57
2022/03/08 09:55:25;;;;;;;54.28;19.83;;;;;;;;;;5025993;28;20287;-57
2022/03/08 09:57:52;;;;;;;84.72;20.90;;;;;;;;;;5023875;28;20029;-57
2022/03/08 10:00:22;;;;;;;58.70;21.13;;;;;;;;;;4999217;28;20037;-59
2022/03/08 10:02:56;;;;;;;64.13;22.20;;;;;;;;;;5002166;28;20462;-57
2022/03/08 10:05:24;;;;;;;65.00;21.13;;;;;;;;;;5003981;28;20404;-57
2022/03/08 10:08:13;;;;;;;51.83;17.88;;;;;;;;;;4997653;28;20105;-57
2022/03/08 10:11:03;;;;;;;50.80;20.00;;;;;;;;;;5005576;28;20029;-58
2022/03/08 10:13:37;;;;;;;55.95;20.70;;;;;;;;;;5000115;28;20279;-59
2022/03/08 10:16:41;;;;;;;62.50;20.02;;;;;;;;;;4999234;28;20029;-57
2022/03/08 10:19:09;;;;;;;45.20;18.35;;;;;;;;;;4997547;28;20049;-57
2022/03/08 10:21:37;;;;;;;55.05;19.42;;;;;;;;;;5005446;28;20069;-57
2022/03/08 10:24:05;;;;;;;62.78;21.42;;;;;;;;;;5002493;28;20516;-57
2022/03/08 10:26:41;;;;;;;57.83;19.45;;;;;;;;;;5000881;28;20029;-57
2022/03/08 10:29:07;;;;;;;56.53;20.00;;;;;;;;;;5000721;28;20029;-58
2022/03/08 10:31:32;;;;;;;55.40;21.17;;;;;;;;;;5004862;28;20337;-59
2022/03/08 10:34:09;;;;;;;73.88;23.23;;;;;;;;;;4999913;28;20405;-59
2022/03/08 10:36:36;;;;;;;59.30;21.25;;;;;;;;;;5006735;28;20519;-59
2022/03/08 10:39:15;;;;;;;64.60;20.70;;;;;;;;;;4998449;28;20041;-60
2022/03/08 10:41:50;;;;;;;75.68;22.77;;;;;;;;;;5000003;28;20036;-58
2022/03/08 10:44:37;;;;;;;58.47;21.23;;;;;;;;;;5001501;28;20052;-58
2022/03/08 10:47:08;;;;;;;63.42;21.50;;;;;;;;;;5012239;28;20049;-58
2022/03/08 10:49:46;;;;;;;62.00;20.52;;;;;;;;;;5003068;28;20018;-59
2022/03/08 10:52:11;;;;;;;44.17;20.02;;;;;;;;;;4996985;28;20030;-59
2022/03/08 10:54:37;;;;;;;53.17;19.98;;;;;;;;;;5002004;28;20025;-59
2022/03/08 10:57:02;;;;;;;64.55;21.67;;;;;;;;;;5000486;28;20117;-61
2022/03/08 10:59:28;;;;;;;58.17;19.40;;;;;;;;;;5011537;28;20081;-63
2022/03/08 11:01:54;;;;;;;71.65;21.98;;;;;;;;;;5025949;28;20033;-59
2022/03/08 11:04:23;;;;;;;63.30;20.20;;;;;;;;;;5022659;28;20041;-59
2022/03/08 11:06:52;;;;;;;60.05;21.20;;;;;;;;;;5023248;28;20037;-59
2022/03/08 11:09:18;;;;;;;64.50;19.95;;;;;;;;;;5021143;28;20045;-59
2022/03/08 11:11:44;;;;;;;70.70;23.45;;;;;;;;;;5025460;28;20034;-59
2022/03/08 11:14:11;;;;;;;69.60;21.08;;;;;;;;;;5022642;28;20029;-59
2022/03/08 11:16:38;;;;;;;64.47;20.50;;;;;;;;;;5023463;28;20112;-61
2022/03/08 11:19:05;;;;;;;72.85;21.65;;;;;;;;;;5017690;28;20025;-59
2022/03/08 11:21:33;;;;;;;70.85;20.98;;;;;;;;;;5022096;28;20527;-59
2022/03/08 11:24:00;;;;;;;82.53;21.10;;;;;;;;;;5022509;28;20037;-59
2022/03/08 11:26:26;;;;;;;49.45;18.58;;;;;;;;;;5023154;28;20036;-60
2022/03/08 11:28:53;;;;;;;77.85;21.10;;;;;;;;;;5023357;28;20063;-59
2022/03/08 11:31:30;;;;;;;72.22;22.73;;;;;;;;;;5022187;28;20036;-58
2022/03/08 11:34:06;;;;;;;84.38;23.33;;;;;;;;;;5023942;28;20028;-59
2022/03/08 11:36:33;;;;;;;65.57;20.80;;;;;;;;;;5017855;28;20033;-58
2022/03/08 11:39:14;;;;;;;61.90;22.45;;;;;;;;;;5021439;28;20041;-60
2022/03/08 11:41:39;;;;;;;76.80;22.58;;;;;;;;;;5025569;28;20025;-59
2022/03/08 11:44:06;;;;;;;56.97;20.58;;;;;;;;;;5019235;28;20091;-59
2022/03/08 11:46:32;;;;;;;51.55;19.10;;;;;;;;;;5028366;28;20044;-59
2022/03/08 11:48:59;;;;;;;64.00;21.52;;;;;;;;;;5024512;28;20382;-59
2022/03/08 11:51:28;;;;;;;54.30;18.30;;;;;;;;;;5028600;28;20025;-59
2022/03/08 11:54:07;;;;;;;64.32;21.48;;;;;;;;;;5026319;28;20108;-59
2022/03/08 11:56:51;;;;;;;57.17;19.58;;;;;;;;;;5028482;28;20021;-61
2022/03/08 11:59:17;;;;;;;62.75;21.17;;;;;;;;;;5019707;28;20075;-59
2022/03/08 12:01:42;;;;;;;67.13;23.35;;;;;;;;;;5023497;28;20578;-58
2022/03/08 12:04:13;;;;;;;74.97;24.20;;;;;;;;;;5026938;28;20044;-59
2022/03/08 12:06:41;;;;;;;64.28;20.60;;;;;;;;;;5023746;28;20036;-58
2022/03/08 12:09:12;;;;;;;60.58;20.05;;;;;;;;;;5024555;28;20065;-58
2022/03/08 12:11:41;;;;;;;69.97;17.52;;;;;;;;;;5027114;28;20108;-58
2022/03/08 12:14:12;;;;;;;70.18;22.67;;;;;;;;;;5017613;28;20033;-58
2022/03/08 12:16:40;;;;;;;64.20;18.33;;;;;;;;;;5028032;28;20530;-59
2022/03/08 12:19:08;;;;;;;75.78;23.40;;;;;;;;;;5019211;28;20068;-58
2022/03/08 12:21:37;;;;;;;77.43;21.05;;;;;;;;;;5027661;28;20480;-59
2022/03/08 12:24:09;;;;;;;83.75;23.10;;;;;;;;;;5025658;28;20029;-58
2022/03/08 12:26:40;;;;;;;83.28;21.63;;;;;;;;;;5024454;28;20033;-58
2022/03/08 12:29:36;;;;;;;74.80;20.17;;;;;;;;;;5025374;28;20044;-58
2022/03/08 12:32:02;;;;;;;71.80;22.42;;;;;;;;;;5021055;28;20021;-57
2022/03/08 12:34:39;;;;;;;74.85;19.98;;;;;;;;;;5013963;28;20453;-56
2022/03/08 12:37:36;;;;;;;75.75;22.05;;;;;;;;;;5021887;28;20030;-62
2022/03/08 12:40:09;;;;;;;58.22;17.90;;;;;;;;;;5021506;28;20104;-57
2022/03/08 12:42:35;;;;;;;70.88;18.48;;;;;;;;;;5024133;28;20033;-58
2022/03/08 12:45:17;;;;;;;91.20;21.17;;;;;;;;;;5024769;28;20399;-57
2022/03/08 12:47:52;;;;;;;87.45;23.10;;;;;;;;;;5017100;28;20124;-55
2022/03/08 12:50:32;;;;;;;90.57;20.52;;;;;;;;;;5017983;28;20022;-57
2022/03/08 12:53:25;;;;;;;70.68;17.75;;;;;;;;;;5023406;28;20025;-57
2022/03/08 12:55:57;;;;;;;62.17;19.13;;;;;;;;;;5025988;28;20079;-58
2022/03/08 12:58:28;;;;;;;73.35;20.48;;;;;;;;;;5020028;28;20416;-58
2022/03/08 13:00:58;;;;;;;95.50;23.95;;;;;;;;;;5019688;28;20044;-58
2022/03/08 13:03:26;;;;;;;68.88;19.67;;;;;;;;;;5010654;28;20040;-56
2022/03/08 13:05:54;;;;;;;91.80;22.65;;;;;;;;;;5013624;28;20033;-58
2022/03/08 13:08:22;;;;;;;78.68;23.55;;;;;;;;;;5017367;28;20455;-57
2022/03/08 13:10:51;;;;;;;70.30;19.15;;;;;;;;;;5024671;28;20366;-58
2022/03/08 13:13:17;;;;;;;56.92;16.95;;;;;;;;;;5017696;28;20065;-55
2022/03/08 13:15:43;;;;;;;70.03;20.30;;;;;;;;;;5023411;28;20523;-56
2022/03/08 13:18:09;;;;;;;61.03;16.85;;;;;;;;;;5019422;28;20045;-59
2022/03/08 13:20:35;;;;;;;47.20;14.23;;;;;;;;;;5016484;28;20025;-57
2022/03/08 13:23:04;;;;;;;48.85;14.82;;;;;;;;;;5023959;28;20503;-57
2022/03/08 13:25:31;;;;;;;46.42;14.35;;;;;;;;;;5026690;28;20028;-57
2022/03/08 13:28:04;;;;;;;44.38;14.10;;;;;;;;;;5027718;28;20021;-57
2022/03/08 13:30:38;;;;;;;31.70;11.82;;;;;;;;;;5023711;28;20480;-57
2022/03/08 13:33:29;;;;;;;22.55;9.27;;;;;;;;;;5019438;28;20049;-58
2022/03/08 13:36:01;;;;;;;21.73;7.50;;;;;;;;;;5020091;28;20113;-58
2022/03/08 13:38:39;;;;;;;22.08;5.72;;;;;;;;;;5023007;28;20415;-57
2022/03/08 13:41:22;;;;;;;10.38;4.68;;;;;;;;;;5029144;28;20065;-56
2022/03/08 13:43:53;;;;;;;9.25;4.35;;;;;;;;;;5018970;28;20124;-48
2022/03/08 13:46:30;;;;;;;9.55;3.47;;;;;;;;;;5022791;28;20048;-57
2022/03/08 13:49:01;;;;;;;12.15;4.28;;;;;;;;;;5021476;28;20040;-57
2022/03/08 13:51:28;;;;;;;9.03;3.40;;;;;;;;;;5023021;28;20025;-57
2022/03/08 13:53:55;;;;;;;6.32;2.85;;;;;;;;;;5019654;28;20318;-57
2022/03/08 13:56:25;;;;;;;6.00;2.70;;;;;;;;;;5017163;28;20041;-58
2022/03/08 13:58:58;;;;;;;5.85;2.58;;;;;;;;;;5015192;28;20101;-57
2022/03/08 14:01:25;;;;;;;3.35;1.70;;;;;;;;;;5016990;28;20187;-56
2022/03/08 14:03:53;;;;;;;7.40;1.30;;;;;;;;;;5015995;28;20116;-56
2022/03/08 14:06:23;;;;;;;3.00;0.85;;;;;;;;;;5022182;28;20022;-55
2022/03/08 14:08:51;;;;;;;7.93;2.65;;;;;;;;;;5022633;28;20028;-56
2022/03/08 14:11:22;;;;;;;3.75;1.00;;;;;;;;;;5024845;28;20407;-56
2022/03/08 14:13:56;;;;;;;4.38;1.05;;;;;;;;;;5022677;28;20017;-55
2022/03/08 14:16:43;;;;;;;4.90;1.60;;;;;;;;;;5019261;28;20048;-57
2022/03/08 14:19:09;;;;;;;9.20;1.58;;;;;;;;;;5021620;28;20080;-56
2022/03/08 14:21:49;;;;;;;5.38;1.88;;;;;;;;;;5020455;28;20514;-58